createdAt,value
2022-12-09T00:00:30.550Z,16.05
2022-12-09T00:03:01.959Z,17.08
2022-12-09T00:05:32.296Z,15.93
2022-12-09T00:08:02.378Z,18.42
2022-12-09T00:10:35.171Z,14.90
2022-12-09T00:13:05.391Z,15.00
2022-12-09T00:15:35.576Z,15.60
2022-12-09T00:18:06.240Z,18.13
2022-12-09T00:20:36.327Z,17.48
2022-12-09T00:23:06.608Z,18.60
2022-12-09T00:25:39.244Z,20.63
2022-12-09T00:28:09.487Z,23.05
2022-12-09T00:30:39.741Z,20.92
2022-12-09T00:33:10.025Z,19.42
2022-12-09T00:35:40.368Z,20.50
2022-12-09T00:38:10.471Z,21.42
2022-12-09T00:40:43.139Z,19.73
2022-12-09T00:43:13.205Z,20.00
2022-12-09T00:45:43.486Z,15.63
2022-12-09T00:48:13.513Z,18.52
2022-12-09T00:50:43.796Z,16.65
2022-12-09T00:53:13.798Z,15.55
2022-12-09T00:55:47.325Z,16.70
2022-12-09T00:58:17.635Z,16.10
2022-12-09T01:00:48.034Z,16.73
2022-12-09T01:03:19.585Z,16.90
2022-12-09T01:08:20.103Z,18.27
2022-12-09T01:10:53.233Z,17.83
2022-12-09T01:13:23.350Z,12.73
2022-12-09T01:15:53.657Z,24.15
2022-12-09T01:18:23.909Z,17.75
2022-12-09T01:20:59.822Z,15.68
2022-12-09T01:23:29.801Z,20.17
2022-12-09T01:26:02.465Z,15.98
2022-12-09T01:28:32.479Z,15.73
2022-12-09T01:31:09.385Z,16.65
2022-12-09T01:33:39.515Z,13.70
2022-12-09T01:36:11.829Z,16.30
2022-12-09T01:38:42.072Z,16.02
2022-12-09T01:41:15.496Z,15.57
2022-12-09T01:43:46.566Z,15.95
2022-12-09T01:46:16.888Z,14.63
2022-12-09T01:48:48.983Z,16.67
2022-12-09T01:51:23.469Z,12.27
2022-12-09T01:53:54.704Z,11.57
2022-12-09T01:56:31.938Z,15.05
2022-12-09T01:59:05.277Z,13.98
2022-12-09T02:01:36.133Z,14.55
2022-12-09T02:04:06.939Z,16.50
2022-12-09T02:06:39.923Z,17.17
2022-12-09T02:09:11.028Z,14.45
2022-12-09T02:11:54.137Z,16.02
2022-12-09T02:14:30.750Z,14.68
2022-12-09T02:17:17.197Z,11.65
2022-12-09T02:20:01.786Z,18.02
2022-12-09T02:22:36.280Z,15.52
2022-12-09T02:25:19.235Z,15.25
2022-12-09T02:28:02.154Z,16.50
2022-12-09T02:30:40.447Z,19.52
2022-12-09T02:33:28.658Z,19.48
2022-12-09T02:36:08.306Z,15.35
2022-12-09T02:38:41.527Z,17.85
2022-12-09T02:41:17.155Z,16.85
2022-12-09T02:43:53.241Z,16.83
2022-12-09T02:46:25.082Z,15.25
2022-12-09T02:48:58.464Z,16.92
2022-12-09T02:51:34.631Z,14.85
2022-12-09T02:54:10.085Z,14.85
2022-12-09T02:56:41.854Z,17.30
2022-12-09T02:59:12.842Z,17.42
2022-12-09T03:01:48.472Z,15.38
2022-12-09T03:04:23.880Z,20.52
2022-12-09T03:06:58.564Z,33.78
2022-12-09T03:09:32.245Z,21.40
2022-12-09T03:12:08.240Z,19.02
2022-12-09T03:14:43.796Z,20.60
2022-12-09T03:17:20.388Z,25.45
2022-12-09T03:19:54.845Z,22.95
2022-12-09T03:22:32.436Z,19.08
2022-12-09T03:25:06.481Z,21.38
2022-12-09T03:27:41.377Z,18.90
2022-12-09T03:30:13.838Z,19.17
2022-12-09T03:32:46.277Z,15.73
2022-12-09T03:35:21.937Z,16.38
2022-12-09T03:37:55.752Z,14.40
2022-12-09T03:40:30.628Z,25.65
2022-12-09T03:43:06.603Z,15.70
2022-12-09T03:45:37.185Z,18.77
2022-12-09T03:48:07.779Z,21.88
2022-12-09T03:50:43.276Z,18.88
2022-12-09T03:53:19.108Z,18.92
2022-12-09T03:55:58.306Z,22.27
2022-12-09T03:58:29.690Z,18.02
2022-12-09T04:00:59.952Z,22.88
2022-12-09T04:03:30.221Z,25.05
2022-12-09T04:06:00.896Z,20.17
2022-12-09T04:08:33.890Z,31.27
2022-12-09T04:11:04.634Z,19.92
2022-12-09T04:13:34.947Z,25.90
2022-12-09T04:16:05.329Z,26.35
2022-12-09T04:18:35.985Z,25.23
2022-12-09T04:21:09.782Z,22.20
2022-12-09T04:23:43.396Z,24.02
2022-12-09T04:26:18.634Z,23.38
2022-12-09T04:28:48.909Z,22.42
2022-12-09T04:31:21.417Z,19.42
2022-12-09T04:33:52.008Z,22.23
2022-12-09T04:36:23.229Z,22.58
2022-12-09T04:38:55.980Z,24.05
2022-12-09T04:41:26.215Z,21.83
2022-12-09T04:43:56.249Z,26.02
2022-12-09T04:46:26.855Z,20.48
2022-12-09T04:48:57.549Z,23.23
2022-12-09T04:51:28.038Z,28.85
2022-12-09T04:54:01.143Z,31.10
2022-12-09T04:56:31.502Z,23.08
2022-12-09T04:59:01.783Z,22.02
2022-12-09T05:01:32.470Z,26.20
2022-12-09T05:04:03.161Z,24.60
2022-12-09T05:06:33.743Z,22.20
2022-12-09T05:09:06.742Z,26.45
2022-12-09T05:11:36.924Z,25.50
2022-12-09T05:14:07.207Z,24.02
2022-12-09T05:16:37.421Z,22.42
2022-12-09T05:19:07.962Z,21.70
2022-12-09T05:21:38.510Z,19.80
2022-12-09T05:24:11.794Z,21.92
2022-12-09T05:26:42.323Z,22.02
2022-12-09T05:29:16.604Z,19.90
2022-12-09T05:31:51.764Z,22.92
2022-12-09T05:34:22.757Z,19.25
2022-12-09T05:36:53.624Z,20.52
2022-12-09T05:39:26.718Z,21.23
2022-12-09T05:41:57.081Z,22.45
2022-12-09T05:44:27.385Z,23.40
2022-12-09T05:46:57.587Z,19.70
2022-12-09T05:49:28.578Z,20.33
2022-12-09T05:51:59.083Z,25.33
2022-12-09T05:54:32.390Z,31.20
2022-12-09T05:57:04.449Z,23.92
2022-12-09T05:59:34.942Z,20.77
2022-12-09T06:02:09.808Z,23.90
2022-12-09T06:04:41.222Z,23.25
2022-12-09T06:07:11.514Z,21.85
2022-12-09T06:09:45.092Z,22.42
2022-12-09T06:12:15.254Z,21.63
2022-12-09T06:14:45.540Z,23.52
2022-12-09T06:17:16.446Z,23.65
2022-12-09T06:19:46.825Z,23.35
2022-12-09T06:22:17.420Z,22.98
2022-12-09T06:24:56.806Z,24.92
2022-12-09T06:27:27.575Z,24.27
2022-12-09T06:30:01.255Z,23.20
2022-12-09T06:32:31.503Z,27.98
2022-12-09T06:35:02.256Z,23.45
2022-12-09T06:37:32.742Z,23.08
2022-12-09T06:40:06.754Z,28.25
2022-12-09T06:42:36.974Z,20.80
2022-12-09T06:45:08.120Z,25.95
2022-12-09T06:47:38.668Z,28.00
2022-12-09T06:50:10.897Z,24.45
2022-12-09T06:52:42.175Z,24.20
2022-12-09T06:55:15.656Z,31.20
2022-12-09T06:57:46.218Z,28.98
2022-12-09T07:00:17.900Z,30.77
2022-12-09T07:02:48.540Z,29.02
2022-12-09T07:05:19.460Z,28.05
2022-12-09T07:07:53.977Z,31.52
2022-12-09T07:10:27.141Z,28.10
2022-12-09T07:12:57.491Z,30.67
2022-12-09T07:15:29.776Z,50.08
2022-12-09T07:18:00.223Z,26.85
2022-12-09T07:20:30.585Z,29.42
2022-12-09T07:23:01.096Z,34.95
2022-12-09T07:25:33.851Z,25.25
2022-12-09T07:28:03.817Z,35.42
2022-12-09T07:30:33.998Z,25.40
2022-12-09T07:33:04.716Z,28.35
2022-12-09T07:35:34.850Z,28.13
2022-12-09T07:38:05.592Z,30.60
2022-12-09T07:40:39.270Z,31.15
2022-12-09T07:43:10.141Z,25.17
2022-12-09T07:45:41.112Z,30.30
2022-12-09T07:48:12.154Z,27.27
2022-12-09T07:50:43.365Z,58.17
2022-12-09T07:53:13.693Z,34.85
2022-12-09T07:55:46.657Z,23.70
2022-12-09T07:58:16.988Z,29.88
2022-12-09T08:00:47.026Z,25.10
2022-12-09T08:03:17.206Z,28.23
2022-12-09T08:05:51.752Z,25.33
2022-12-09T08:08:22.229Z,25.60
2022-12-09T08:10:55.629Z,24.00
2022-12-09T08:13:26.038Z,27.42
2022-12-09T08:15:56.440Z,26.30
2022-12-09T08:18:26.778Z,25.67
2022-12-09T08:20:57.388Z,25.63
2022-12-09T08:23:27.718Z,27.75
2022-12-09T08:26:01.006Z,25.55
2022-12-09T08:28:33.099Z,28.85
2022-12-09T08:31:10.554Z,30.85
2022-12-09T08:33:41.682Z,39.80
2022-12-09T08:36:15.152Z,28.08
2022-12-09T08:38:45.693Z,29.52
2022-12-09T08:41:20.134Z,29.65
2022-12-09T08:43:50.784Z,26.13
2022-12-09T08:46:21.147Z,28.73
2022-12-09T08:48:52.024Z,26.40
2022-12-09T08:51:22.255Z,24.98
2022-12-09T08:53:52.422Z,32.30
2022-12-09T08:56:25.174Z,27.45
2022-12-09T08:58:56.471Z,23.90
2022-12-09T09:01:32.659Z,24.00
2022-12-09T09:04:04.970Z,24.13
2022-12-09T09:06:35.484Z,26.80
2022-12-09T09:09:06.830Z,27.27
2022-12-09T09:11:40.398Z,26.38
2022-12-09T09:14:12.455Z,20.63
2022-12-09T09:16:45.349Z,23.13
2022-12-09T09:19:19.534Z,22.88
2022-12-09T09:21:50.105Z,20.38
2022-12-09T09:24:22.234Z,20.45
2022-12-09T09:26:56.850Z,22.48
2022-12-09T09:29:27.629Z,23.88
2022-12-09T09:31:58.401Z,20.75
2022-12-09T09:34:29.874Z,22.70
2022-12-09T09:37:00.526Z,20.00
2022-12-09T09:39:30.730Z,26.55
2022-12-09T09:42:08.970Z,22.58
2022-12-09T09:44:43.945Z,22.83
2022-12-09T09:47:19.865Z,24.85
2022-12-09T09:49:56.414Z,22.77
2022-12-09T09:52:30.350Z,21.02
2022-12-09T09:55:01.423Z,20.05
2022-12-09T09:57:39.856Z,23.15
2022-12-09T10:00:23.382Z,22.23
2022-12-09T10:05:34.453Z,20.85
2022-12-09T10:08:24.854Z,23.42
2022-12-09T10:11:05.869Z,25.27
2022-12-09T10:13:49.695Z,21.95
2022-12-09T10:16:25.117Z,23.83
2022-12-09T10:19:09.361Z,23.08
2022-12-09T10:21:45.286Z,21.92
2022-12-09T10:24:24.225Z,21.85
2022-12-09T10:27:07.543Z,22.00
2022-12-09T10:29:54.186Z,22.45
2022-12-09T10:32:27.849Z,39.58
2022-12-09T10:34:58.222Z,30.40
2022-12-09T10:37:32.262Z,21.85
2022-12-09T10:40:17.539Z,22.33
2022-12-09T10:43:02.867Z,23.55
2022-12-09T10:46:08.362Z,22.67
2022-12-09T10:48:34.121Z,23.77
2022-12-09T10:53:38.865Z,19.67
2022-12-09T10:56:10.355Z,24.52
2022-12-09T10:58:40.781Z,19.08
2022-12-09T11:01:16.072Z,23.88
2022-12-09T11:03:52.637Z,24.08
2022-12-09T11:06:27.359Z,23.85
2022-12-09T11:09:00.561Z,22.35
2022-12-09T11:11:47.173Z,24.45
2022-12-09T11:14:25.726Z,24.77
2022-12-09T11:17:01.967Z,24.55
2022-12-09T11:19:35.148Z,24.85
2022-12-09T11:22:29.273Z,20.65
2022-12-09T11:25:15.803Z,25.95
2022-12-09T11:27:52.438Z,20.77
2022-12-09T11:30:25.815Z,21.17
2022-12-09T11:33:03.640Z,23.80
2022-12-09T11:35:40.084Z,22.42
2022-12-09T11:38:24.704Z,21.85
2022-12-09T11:43:45.559Z,28.17
2022-12-09T11:46:27.469Z,24.92
2022-12-09T11:49:04.375Z,22.15
2022-12-09T11:51:38.943Z,22.85
2022-12-09T11:54:23.386Z,23.38
2022-12-09T11:56:55.581Z,23.80
2022-12-09T11:59:32.341Z,21.80
2022-12-09T12:02:14.827Z,19.25
2022-12-09T12:04:54.981Z,21.23
2022-12-09T12:07:33.057Z,21.83
2022-12-09T12:10:03.405Z,20.38
2022-12-09T12:12:44.307Z,21.90
2022-12-09T12:15:20.299Z,22.42
2022-12-09T12:17:55.276Z,20.40
2022-12-09T12:20:39.822Z,20.77
2022-12-09T12:25:57.582Z,22.10
2022-12-09T12:29:12.475Z,23.63
2022-12-09T12:32:08.622Z,23.27
2022-12-09T12:34:46.978Z,19.90
2022-12-09T12:37:32.814Z,22.15
2022-12-09T12:40:10.897Z,24.33
2022-12-09T12:43:07.953Z,21.88
2022-12-09T12:46:02.423Z,17.88
2022-12-09T12:48:42.146Z,21.77
2022-12-09T12:51:29.827Z,20.45
2022-12-09T12:54:12.973Z,20.83
2022-12-09T12:56:56.913Z,20.83
2022-12-09T12:59:37.644Z,22.40
2022-12-09T13:02:28.228Z,19.67
2022-12-09T13:05:03.931Z,19.98
2022-12-09T13:07:39.775Z,19.00
2022-12-09T13:10:24.352Z,19.80
2022-12-09T13:13:01.885Z,31.67
2022-12-09T13:15:36.140Z,31.55
2022-12-09T13:18:14.645Z,30.13
2022-12-09T13:20:50.022Z,38.83
2022-12-09T13:23:30.183Z,52.88
2022-12-09T13:26:23.712Z,58.28
2022-12-09T13:29:00.465Z,54.72
2022-12-09T13:31:32.951Z,40.60
2022-12-09T13:34:20.709Z,39.95
2022-12-09T13:36:52.173Z,36.42
2022-12-09T13:39:52.036Z,35.83
2022-12-09T13:43:01.483Z,37.03
2022-12-09T13:45:37.362Z,56.40
2022-12-09T13:48:29.823Z,34.17
2022-12-09T13:51:01.272Z,36.17
2022-12-09T13:56:05.986Z,26.38
2022-12-09T13:59:09.016Z,27.40
2022-12-09T14:01:45.334Z,25.90
2022-12-09T14:04:22.147Z,26.48
2022-12-09T14:07:08.255Z,25.98
2022-12-09T14:09:48.706Z,35.30
2022-12-09T14:12:53.716Z,33.65
2022-12-09T14:15:42.736Z,34.03
2022-12-09T14:18:32.732Z,39.97
2022-12-09T14:21:25.515Z,33.45
2022-12-09T14:24:25.599Z,34.63
2022-12-09T14:27:12.331Z,42.72
2022-12-09T14:29:57.422Z,35.08
2022-12-09T14:32:33.575Z,29.08
2022-12-09T14:35:07.048Z,32.58
2022-12-09T14:37:53.589Z,35.30
2022-12-09T14:40:53.678Z,31.63
2022-12-09T14:43:51.269Z,32.95
2022-12-09T14:46:28.574Z,31.92
2022-12-09T14:49:04.965Z,30.27
2022-12-09T14:51:42.667Z,31.52
2022-12-09T14:54:20.755Z,31.05
2022-12-09T14:59:26.123Z,36.10
2022-12-09T15:01:59.379Z,29.70
2022-12-09T15:04:34.489Z,32.47
2022-12-09T15:07:16.955Z,26.33
2022-12-09T15:09:58.534Z,29.80
2022-12-09T15:12:33.516Z,27.98
2022-12-09T15:15:08.205Z,31.35
2022-12-09T15:17:44.636Z,27.25
2022-12-09T15:20:29.191Z,29.20
2022-12-09T15:23:01.204Z,29.67
2022-12-09T15:25:31.866Z,31.58
2022-12-09T15:28:04.588Z,31.60
2022-12-09T15:30:37.738Z,32.05
2022-12-09T15:33:16.931Z,30.58
2022-12-09T15:35:54.712Z,31.50
2022-12-09T15:38:27.940Z,33.33
2022-12-09T15:41:12.926Z,29.80
2022-12-09T15:43:46.795Z,32.00
2022-12-09T15:46:20.154Z,30.55
2022-12-09T15:48:53.220Z,29.63
2022-12-09T15:51:26.974Z,32.75
2022-12-09T15:54:00.812Z,29.92
2022-12-09T15:56:36.954Z,37.65
2022-12-09T15:59:17.602Z,32.00
2022-12-09T16:01:52.414Z,34.03
2022-12-09T16:04:24.864Z,31.65
2022-12-09T16:06:58.686Z,33.63
2022-12-09T16:09:28.912Z,33.22
2022-12-09T16:11:59.042Z,33.13
2022-12-09T16:14:29.594Z,31.98
2022-12-09T16:17:03.070Z,30.77
2022-12-09T16:19:40.663Z,36.60
2022-12-09T16:22:24.133Z,37.42
2022-12-09T16:27:49.890Z,31.23
2022-12-09T16:30:23.365Z,30.35
2022-12-09T16:32:55.517Z,33.95
2022-12-09T16:35:28.333Z,31.10
2022-12-09T16:38:19.749Z,37.30
2022-12-09T16:43:38.112Z,28.45
2022-12-09T16:46:49.709Z,34.90
2022-12-09T16:49:19.945Z,49.05
2022-12-09T16:51:52.815Z,36.63
2022-12-09T16:54:25.424Z,36.65
2022-12-09T16:56:55.639Z,32.85
2022-12-09T16:59:28.970Z,30.25
2022-12-09T17:02:04.952Z,33.55
2022-12-09T17:04:35.269Z,34.60
2022-12-09T17:07:05.225Z,41.05
2022-12-09T17:09:38.009Z,35.33
2022-12-09T17:12:08.478Z,37.90
2022-12-09T17:14:39.020Z,43.50
2022-12-09T17:17:09.118Z,36.25
2022-12-09T17:19:39.184Z,39.85
2022-12-09T17:22:09.272Z,40.78
2022-12-09T17:24:42.170Z,38.47
2022-12-09T17:27:12.259Z,35.97
2022-12-09T17:29:45.644Z,37.85
2022-12-09T17:32:16.056Z,39.72
2022-12-09T17:34:46.088Z,38.55
2022-12-09T17:37:16.081Z,40.15
2022-12-09T17:39:55.676Z,40.65
2022-12-09T17:42:27.152Z,41.53
2022-12-09T17:44:57.473Z,36.80
2022-12-09T17:47:28.646Z,38.38
2022-12-09T17:49:58.935Z,36.63
2022-12-09T17:52:28.939Z,37.78
2022-12-09T17:55:01.824Z,61.63
2022-12-09T17:57:31.777Z,47.72
2022-12-09T18:00:01.753Z,51.88
2022-12-09T18:02:31.792Z,50.45
2022-12-09T18:05:01.826Z,44.42
2022-12-09T18:07:31.798Z,43.20
2022-12-09T18:10:04.824Z,46.13
2022-12-09T18:12:34.890Z,39.60
2022-12-09T18:15:05.059Z,42.55
2022-12-09T18:17:36.181Z,45.00
2022-12-09T18:20:06.683Z,45.80
2022-12-09T18:22:37.247Z,54.33
2022-12-09T18:25:11.017Z,43.50
2022-12-09T18:27:41.058Z,42.38
2022-12-09T18:30:12.484Z,44.17
2022-12-09T18:32:42.521Z,47.78
2022-12-09T18:35:13.197Z,48.35
2022-12-09T18:37:43.365Z,42.97
2022-12-09T18:40:21.254Z,41.63
2022-12-09T18:42:51.483Z,52.35
2022-12-09T18:45:21.578Z,38.50
2022-12-09T18:47:51.626Z,43.70
2022-12-09T18:50:21.969Z,39.42
2022-12-09T18:52:52.201Z,41.97
2022-12-09T18:55:24.780Z,40.50
2022-12-09T18:57:54.834Z,42.78
2022-12-09T19:00:25.038Z,36.35
2022-12-09T19:02:55.133Z,47.58
2022-12-09T19:05:26.372Z,41.53
2022-12-09T19:07:56.634Z,39.70
2022-12-09T19:10:29.273Z,41.33
2022-12-09T19:12:59.778Z,39.22
2022-12-09T19:15:30.054Z,41.67
2022-12-09T19:18:00.429Z,45.78
2022-12-09T19:20:30.655Z,42.45
2022-12-09T19:23:01.166Z,46.88
2022-12-09T19:25:33.740Z,47.25
2022-12-09T19:28:04.029Z,47.17
2022-12-09T19:30:34.129Z,41.92
2022-12-09T19:33:04.198Z,41.88
2022-12-09T19:35:34.517Z,46.97
2022-12-09T19:38:05.004Z,44.33
2022-12-09T19:40:37.628Z,46.28
2022-12-09T19:43:07.687Z,44.92
2022-12-09T19:45:37.643Z,40.47
2022-12-09T19:48:07.859Z,45.03
2022-12-09T19:50:38.922Z,46.28
2022-12-09T19:53:08.951Z,48.65
2022-12-09T19:55:42.077Z,44.40
2022-12-09T19:58:12.456Z,50.63
2022-12-09T20:00:42.469Z,48.83
2022-12-09T20:03:12.573Z,47.92
2022-12-09T20:05:51.255Z,44.58
2022-12-09T20:08:21.788Z,49.22
2022-12-09T20:10:54.630Z,43.47
2022-12-09T20:13:30.170Z,43.65
2022-12-09T20:16:06.465Z,42.03
2022-12-09T20:18:36.947Z,50.35
2022-12-09T20:21:08.611Z,45.33
2022-12-09T20:23:40.246Z,45.95
2022-12-09T20:26:14.769Z,53.90
2022-12-09T20:28:46.467Z,52.03
2022-12-09T20:33:48.168Z,45.08
2022-12-09T20:36:21.598Z,47.15
2022-12-09T20:38:52.986Z,49.25
2022-12-09T20:41:30.335Z,44.40
2022-12-09T20:44:01.922Z,38.30
2022-12-09T20:46:33.557Z,36.90
2022-12-09T20:49:13.883Z,37.78
2022-12-09T20:51:45.350Z,39.38
2022-12-09T20:54:16.649Z,46.17
2022-12-09T20:56:49.289Z,40.42
2022-12-09T20:59:19.567Z,40.25
2022-12-09T21:01:49.885Z,37.72
2022-12-09T21:04:20.470Z,40.78
2022-12-09T21:06:50.724Z,40.03
2022-12-09T21:09:24.858Z,34.40
2022-12-09T21:11:58.072Z,35.35
2022-12-09T21:14:32.976Z,31.45
2022-12-09T21:17:04.364Z,33.08
2022-12-09T21:19:34.437Z,30.58
2022-12-09T21:22:06.447Z,34.47
2022-12-09T21:24:36.749Z,27.67
2022-12-09T21:27:09.456Z,40.63
2022-12-09T21:29:40.423Z,32.50
2022-12-09T21:32:10.514Z,33.67
2022-12-09T21:34:40.538Z,27.85
2022-12-09T21:37:10.564Z,28.38
2022-12-09T21:39:40.779Z,27.33
2022-12-09T21:42:13.504Z,31.52
2022-12-09T21:44:43.683Z,29.77
2022-12-09T21:47:13.653Z,32.10
2022-12-09T21:49:43.880Z,28.45
2022-12-09T21:52:13.878Z,30.08
2022-12-09T21:54:43.947Z,28.23
2022-12-09T21:57:16.550Z,26.75
2022-12-09T21:59:46.745Z,27.17
2022-12-09T22:02:16.735Z,28.52
2022-12-09T22:04:46.884Z,32.90
2022-12-09T22:07:17.095Z,33.30
2022-12-09T22:09:47.306Z,33.13
2022-12-09T22:12:20.250Z,28.52
2022-12-09T22:14:50.340Z,29.83
2022-12-09T22:17:20.404Z,27.52
2022-12-09T22:20:07.762Z,28.17
2022-12-09T22:22:41.553Z,30.33
2022-12-09T22:25:13.032Z,28.20
2022-12-09T22:27:45.618Z,26.88
2022-12-09T22:30:17.708Z,28.42
2022-12-09T22:32:50.980Z,29.30
2022-12-09T22:35:21.464Z,23.85
2022-12-09T22:37:51.466Z,28.23
2022-12-09T22:40:21.650Z,30.27
2022-12-09T22:42:54.401Z,27.60
2022-12-09T22:45:24.781Z,30.10
2022-12-09T22:47:57.463Z,28.38
2022-12-09T22:50:27.538Z,30.50
2022-12-09T22:52:58.065Z,30.13
2022-12-09T22:55:28.062Z,31.83
2022-12-09T22:58:00.646Z,26.70
2022-12-09T23:00:30.631Z,28.70
2022-12-09T23:03:00.770Z,31.67
2022-12-09T23:05:34.864Z,30.52
2022-12-09T23:08:05.391Z,27.35
2022-12-09T23:10:35.560Z,28.33
2022-12-09T23:13:08.147Z,30.27
2022-12-09T23:15:38.965Z,32.13
2022-12-09T23:18:09.023Z,31.30
2022-12-09T23:20:39.065Z,26.65
2022-12-09T23:23:09.044Z,26.15
2022-12-09T23:25:39.043Z,27.83
2022-12-09T23:28:11.609Z,24.35
2022-12-09T23:30:41.912Z,29.20
2022-12-09T23:33:12.009Z,30.50
2022-12-09T23:35:42.030Z,33.45
2022-12-09T23:38:11.976Z,34.55
2022-12-09T23:40:41.909Z,40.78
2022-12-09T23:43:14.524Z,31.25
2022-12-09T23:45:44.700Z,30.20
2022-12-09T23:48:14.689Z,35.70
2022-12-09T23:50:44.933Z,38.83
2022-12-09T23:53:15.141Z,31.90
2022-12-09T23:55:45.624Z,31.77
2022-12-09T23:58:18.244Z,38.60
